createdAt,value
2022-12-22T00:00:06.412Z,94.54
2022-12-22T00:05:46.632Z,93.35
2022-12-22T00:11:08.741Z,93.36
2022-12-22T00:16:29.912Z,94.98
2022-12-22T00:21:50.167Z,95.25
2022-12-22T00:27:12.155Z,95.40
2022-12-22T00:32:33.059Z,94.94
2022-12-22T00:37:55.265Z,96.18
2022-12-22T00:43:16.773Z,95.31
2022-12-22T00:48:43.007Z,96.10
2022-12-22T00:54:03.580Z,95.48
2022-12-22T00:59:28.625Z,96.07
2022-12-22T01:04:48.710Z,96.33
2022-12-22T01:10:11.513Z,96.60
2022-12-22T01:15:36.277Z,95.77
2022-12-22T01:20:56.720Z,95.98
2022-12-22T01:26:16.877Z,95.86
2022-12-22T01:31:46.316Z,96.67
2022-12-22T01:37:06.612Z,96.42
2022-12-22T01:42:30.407Z,95.88
2022-12-22T01:47:53.898Z,95.22
2022-12-22T01:53:19.635Z,95.88
2022-12-22T01:58:45.941Z,94.81
2022-12-22T02:04:07.383Z,94.24
2022-12-22T02:09:45.543Z,94.32
2022-12-22T02:15:17.308Z,93.85
2022-12-22T02:20:56.897Z,93.81
2022-12-22T02:26:23.061Z,91.87
2022-12-22T02:31:44.970Z,92.43
2022-12-22T02:37:17.351Z,91.98
2022-12-22T02:42:47.527Z,91.65
2022-12-22T02:48:17.180Z,92.13
2022-12-22T02:53:39.426Z,94.07
2022-12-22T02:58:59.595Z,94.12
2022-12-22T03:04:21.768Z,93.90
2022-12-22T03:09:41.950Z,93.43
2022-12-22T03:15:02.188Z,92.06
2022-12-22T03:20:25.425Z,91.60
2022-12-22T03:25:45.673Z,91.67
2022-12-22T03:30:55.291Z,93.84
2022-12-22T03:36:00.595Z,93.95
2022-12-22T03:41:04.069Z,92.63
2022-12-22T03:46:24.275Z,92.38
2022-12-22T03:51:28.549Z,89.86
2022-12-22T03:56:31.717Z,90.25
2022-12-22T04:01:37.906Z,90.80
2022-12-22T04:06:43.759Z,90.98
2022-12-22T04:12:04.131Z,91.37
2022-12-22T04:17:08.163Z,93.60
2022-12-22T04:22:12.452Z,94.77
2022-12-22T04:27:15.382Z,92.98
2022-12-22T04:32:18.468Z,93.59
2022-12-22T04:37:22.751Z,92.24
2022-12-22T04:42:25.813Z,91.76
2022-12-22T04:47:28.722Z,91.60
2022-12-22T04:52:33.063Z,91.06
2022-12-22T04:57:40.544Z,91.15
2022-12-22T05:02:44.187Z,91.82
2022-12-22T05:07:48.577Z,91.03
2022-12-22T05:12:57.213Z,91.36
2022-12-22T05:18:01.505Z,91.18
2022-12-22T05:23:05.766Z,91.94
2022-12-22T05:28:08.676Z,91.97
2022-12-22T05:33:11.574Z,92.47
2022-12-22T05:38:15.895Z,93.67
2022-12-22T05:43:18.982Z,94.74
2022-12-22T05:48:28.279Z,93.92
2022-12-22T05:53:35.309Z,94.12
2022-12-22T05:58:39.957Z,94.58
2022-12-22T06:03:43.023Z,94.39
2022-12-22T06:08:47.460Z,94.24
2022-12-22T06:13:50.365Z,94.13
2022-12-22T06:18:53.318Z,94.71
2022-12-22T06:23:57.616Z,94.94
2022-12-22T06:29:00.494Z,95.73
2022-12-22T06:34:03.487Z,96.63
2022-12-22T06:39:08.069Z,97.90
2022-12-22T06:44:11.018Z,97.11
2022-12-22T06:49:14.008Z,96.39
2022-12-22T06:54:25.727Z,95.96
2022-12-22T06:59:29.180Z,95.16
2022-12-22T07:04:32.217Z,95.90
2022-12-22T07:09:36.471Z,94.27
2022-12-22T07:14:39.440Z,91.00
2022-12-22T07:20:12.428Z,90.52
2022-12-22T07:25:16.929Z,89.86
2022-12-22T07:30:19.879Z,89.68
2022-12-22T07:35:22.793Z,90.11
2022-12-22T07:40:27.455Z,89.17
2022-12-22T07:45:30.625Z,88.33
2022-12-22T07:50:33.553Z,88.06
2022-12-22T07:55:38.184Z,86.34
2022-12-22T08:00:41.115Z,86.70
2022-12-22T08:05:45.570Z,85.29
2022-12-22T08:10:49.860Z,85.97
2022-12-22T08:15:52.753Z,86.91
2022-12-22T08:20:55.966Z,84.40
2022-12-22T08:26:05.649Z,83.43
2022-12-22T08:31:09.030Z,83.96
2022-12-22T08:36:13.037Z,82.43
2022-12-22T08:41:39.291Z,84.03
2022-12-22T08:46:42.292Z,82.98
2022-12-22T08:51:45.542Z,82.63
2022-12-22T08:56:50.134Z,80.98
2022-12-22T09:01:53.184Z,81.29
2022-12-22T09:06:56.196Z,80.63
2022-12-22T09:12:00.860Z,80.33
2022-12-22T09:17:03.875Z,79.66
2022-12-22T09:22:06.856Z,79.65
2022-12-22T09:27:11.304Z,78.96
2022-12-22T09:32:14.315Z,78.22
2022-12-22T09:37:17.717Z,78.27
2022-12-22T09:42:24.007Z,78.28
2022-12-22T09:47:36.013Z,78.22
2022-12-22T09:52:47.447Z,78.47
2022-12-22T09:57:52.699Z,77.95
2022-12-22T10:03:05.927Z,77.98
2022-12-22T10:08:12.560Z,77.45
2022-12-22T10:13:19.662Z,76.17
2022-12-22T10:18:24.460Z,76.05
2022-12-22T10:23:30.494Z,75.42
2022-12-22T10:28:39.722Z,75.72
2022-12-22T10:33:47.190Z,75.75
2022-12-22T10:38:58.305Z,75.30
2022-12-22T10:44:06.299Z,76.33
2022-12-22T10:49:16.501Z,76.99
2022-12-22T10:54:36.462Z,76.55
2022-12-22T10:59:49.745Z,77.05
2022-12-22T11:17:17.228Z,78.10
2022-12-22T11:22:32.499Z,78.31
2022-12-22T11:27:46.250Z,80.19
2022-12-22T11:33:07.976Z,80.59
2022-12-22T11:38:16.980Z,80.20
2022-12-22T11:43:25.711Z,79.14
2022-12-22T11:48:52.529Z,78.99
2022-12-22T11:54:13.421Z,79.26
2022-12-22T11:59:36.260Z,78.73
2022-12-22T12:05:04.501Z,78.62
2022-12-22T12:10:17.228Z,77.87
2022-12-22T12:15:29.744Z,77.74
2022-12-22T12:20:47.172Z,77.21
2022-12-22T12:25:57.697Z,76.41
2022-12-22T12:31:01.984Z,76.58
2022-12-22T12:36:14.534Z,75.88
2022-12-22T12:41:25.713Z,75.52
2022-12-22T12:46:56.071Z,75.20
2022-12-22T12:52:01.551Z,74.18
2022-12-22T12:57:22.994Z,73.63
2022-12-22T13:02:38.379Z,73.30
2022-12-22T13:08:18.165Z,73.16
2022-12-22T13:13:47.002Z,73.00
2022-12-22T13:18:51.887Z,73.46
2022-12-22T13:29:30.615Z,73.22
2022-12-22T13:35:04.352Z,73.26
2022-12-22T13:40:27.161Z,73.97
2022-12-22T13:45:37.663Z,74.36
2022-12-22T13:50:45.186Z,75.74
2022-12-22T13:55:50.061Z,75.69
2022-12-22T14:01:03.039Z,76.56
2022-12-22T14:06:20.593Z,77.16
2022-12-22T14:11:24.931Z,77.01
2022-12-22T14:16:28.047Z,77.26
2022-12-22T14:21:31.321Z,77.90
2022-12-22T14:26:35.672Z,78.86
2022-12-22T14:31:52.707Z,78.65
2022-12-22T14:36:55.731Z,78.16
2022-12-22T14:42:03.110Z,77.96
2022-12-22T14:47:17.452Z,78.16
2022-12-22T14:52:26.225Z,77.42
2022-12-22T14:57:37.239Z,77.80
2022-12-22T15:02:41.616Z,77.66
2022-12-22T15:08:05.258Z,77.56
2022-12-22T15:13:17.889Z,79.23
2022-12-22T15:18:25.736Z,80.33
2022-12-22T15:23:28.907Z,83.20
2022-12-22T15:28:33.831Z,88.08
2022-12-22T15:33:36.729Z,87.78
2022-12-22T15:38:39.908Z,86.98
2022-12-22T15:43:59.878Z,88.50
2022-12-22T15:49:03.554Z,89.52
2022-12-22T15:54:06.549Z,90.30
2022-12-22T15:59:16.243Z,90.55
2022-12-22T16:04:19.608Z,91.33
2022-12-22T16:09:25.107Z,91.71
2022-12-22T16:14:35.239Z,92.15
2022-12-22T16:19:41.752Z,92.94
2022-12-22T16:24:47.762Z,92.96
2022-12-22T16:29:54.664Z,94.29
2022-12-22T16:35:02.466Z,94.08
2022-12-22T16:40:06.827Z,94.97
2022-12-22T16:45:19.451Z,95.53
2022-12-22T16:50:32.264Z,95.22
2022-12-22T16:55:36.026Z,95.76
2022-12-22T17:00:41.754Z,94.39
2022-12-22T17:05:47.357Z,93.36
2022-12-22T17:10:51.167Z,94.16
2022-12-22T17:15:55.436Z,93.53
2022-12-22T17:21:01.259Z,93.82
2022-12-22T17:26:08.042Z,93.26
2022-12-22T17:31:16.669Z,93.78
2022-12-22T17:36:29.152Z,91.86
2022-12-22T17:41:32.325Z,92.37
2022-12-22T17:46:36.676Z,92.24
2022-12-22T17:51:40.963Z,91.59
2022-12-22T17:56:43.943Z,91.80
2022-12-22T18:01:48.566Z,92.58
2022-12-22T18:06:51.661Z,93.08
2022-12-22T18:11:55.098Z,92.37
2022-12-22T18:16:59.493Z,92.73
2022-12-22T18:22:02.465Z,92.93
2022-12-22T18:27:05.327Z,91.66
2022-12-22T18:32:10.186Z,91.71
2022-12-22T18:37:16.841Z,92.12
2022-12-22T18:42:21.879Z,91.86
2022-12-22T18:47:26.259Z,91.60
2022-12-22T18:52:31.068Z,91.83
2022-12-22T18:57:34.291Z,92.62
2022-12-22T19:02:39.014Z,92.54
2022-12-22T19:07:42.033Z,94.97
2022-12-22T19:12:45.780Z,92.31
2022-12-22T19:17:52.765Z,91.90
2022-12-22T19:22:56.042Z,90.93
2022-12-22T19:28:07.328Z,90.71
2022-12-22T19:33:19.327Z,90.47
2022-12-22T19:38:25.576Z,91.95
2022-12-22T19:43:29.170Z,91.41
2022-12-22T19:48:33.405Z,91.53
2022-12-22T19:53:36.272Z,91.40
2022-12-22T19:58:41.579Z,91.05
2022-12-22T20:03:45.956Z,91.41
2022-12-22T20:08:48.873Z,91.46
2022-12-22T20:13:51.970Z,92.10
2022-12-22T20:18:56.270Z,91.62
2022-12-22T20:24:01.173Z,91.74
2022-12-22T20:29:04.149Z,90.87
2022-12-22T20:34:08.523Z,91.25
2022-12-22T20:39:14.278Z,91.09
2022-12-22T20:44:17.191Z,90.90
2022-12-22T20:49:21.470Z,91.17
2022-12-22T20:54:24.373Z,91.26
2022-12-22T20:59:27.329Z,92.10
2022-12-22T21:04:31.652Z,91.90
2022-12-22T21:09:35.742Z,91.28
2022-12-22T21:14:41.761Z,90.88
2022-12-22T21:19:46.274Z,90.61
2022-12-22T21:24:49.155Z,89.24
2022-12-22T21:29:51.995Z,89.16
2022-12-22T21:34:56.252Z,89.50
2022-12-22T21:39:59.134Z,89.82
2022-12-22T21:45:02.013Z,90.54
2022-12-22T21:50:07.378Z,89.83
2022-12-22T21:55:10.272Z,90.43
2022-12-22T22:00:15.463Z,88.21
2022-12-22T22:05:31.575Z,87.69
2022-12-22T22:10:37.150Z,86.62
2022-12-22T22:15:40.365Z,87.27
2022-12-22T22:20:44.904Z,86.17
2022-12-22T22:25:47.907Z,84.15
2022-12-22T22:30:50.858Z,85.66
2022-12-22T22:35:56.284Z,85.17
2022-12-22T22:41:02.473Z,86.08
2022-12-22T22:46:05.609Z,85.00
2022-12-22T22:51:11.349Z,85.58
2022-12-22T22:56:14.256Z,87.38
2022-12-22T23:01:17.155Z,87.65
2022-12-22T23:06:21.402Z,87.55
2022-12-22T23:11:24.546Z,87.09
2022-12-22T23:16:30.885Z,88.43
2022-12-22T23:21:39.943Z,87.85
2022-12-22T23:26:42.969Z,87.57
2022-12-22T23:31:45.950Z,87.54
2022-12-22T23:36:50.195Z,88.24
2022-12-22T23:41:53.131Z,87.77
2022-12-22T23:46:56.018Z,88.56
2022-12-22T23:52:00.312Z,87.95
2022-12-22T23:57:03.227Z,88.90
